Time;durP1;ratioP1;P1;durP2;ratioP2;P2;SDS_P1;SDS_P2;PMS_P1;PMS_P2;Temp;Humidity;BMP_temperature;BMP_pressure;BME280_temperature;BME280_humidity;BME280_pressure;Samples;Min_cycle;Max_cycle;Signal;HPM_P1;HPM_P2
2023/05/03 00:03:24;;;;;;;1.52;0.60;;;;;;;19.53;31.86;102755.09;16114168;19;129469;-42
2023/05/03 00:08:47;;;;;;;1.48;0.52;;;;;;;19.53;31.61;102767.06;16105115;19;130759;-41
2023/05/03 00:14:09;;;;;;;3.03;0.75;;;;;;;19.52;31.73;102764.50;16117924;19;129607;-41
2023/05/03 00:19:32;;;;;;;1.38;0.63;;;;;;;19.48;31.68;102764.06;16113224;19;131065;-43
2023/05/03 00:24:55;;;;;;;0.68;0.40;;;;;;;19.48;31.77;102760.41;16111327;19;129963;-41
2023/05/03 00:30:18;;;;;;;1.02;0.50;;;;;;;19.46;31.99;102756.97;16114227;19;130078;-42
2023/05/03 00:35:40;;;;;;;0.88;0.47;;;;;;;19.43;32.05;102754.66;16111833;19;130522;-40
2023/05/03 00:41:02;;;;;;;1.42;0.50;;;;;;;19.43;31.84;102749.09;16112939;19;130679;-42
2023/05/03 00:46:24;;;;;;;1.10;0.40;;;;;;;19.41;32.16;102740.13;16113011;19;129493;-40
2023/05/03 00:51:47;;;;;;;1.52;0.47;;;;;;;19.40;31.80;102744.78;16107378;19;130774;-41
2023/05/03 00:57:09;;;;;;;0.82;0.50;;;;;;;19.37;32.13;102734.13;16101543;19;130329;-41
2023/05/03 01:02:31;;;;;;;1.83;0.60;;;;;;;19.36;32.00;102721.31;16100366;19;131038;-41
2023/05/03 01:08:19;;;;;;;1.90;0.40;;;;;;;19.35;31.87;102730.69;16111772;19;129566;-41
2023/05/03 01:13:53;;;;;;;1.65;0.38;;;;;;;19.32;32.15;102726.41;16109914;19;130143;-40
2023/05/03 01:19:22;;;;;;;1.15;0.47;;;;;;;19.32;32.03;102725.56;16108130;19;130655;-42
2023/05/03 01:24:54;;;;;;;0.88;0.38;;;;;;;19.30;32.32;102739.66;16111049;19;129297;-42
2023/05/03 01:30:16;;;;;;;2.38;0.50;;;;;;;19.27;32.06;102745.59;16107078;19;129808;-40
2023/05/03 01:35:51;;;;;;;1.85;0.30;;;;;;;19.26;32.37;102752.22;16108868;19;129414;-40
2023/05/03 01:41:17;;;;;;;1.95;0.50;;;;;;;19.23;31.81;102752.63;16108902;19;131693;-42
2023/05/03 01:46:44;;;;;;;2.15;0.30;;;;;;;19.24;31.87;102747.94;16104740;19;131314;-41
2023/05/03 01:52:06;;;;;;;0.93;0.50;;;;;;;19.19;32.21;102738.28;16110781;19;130686;-41
2023/05/03 01:57:27;;;;;;;2.88;0.65;;;;;;;19.19;32.07;102740.22;16105334;19;130314;-40
2023/05/03 02:02:49;;;;;;;0.57;0.30;;;;;;;19.17;31.84;102725.69;16110031;19;130556;-40
2023/05/03 02:08:11;;;;;;;1.42;0.50;;;;;;;19.16;32.26;102732.28;16105443;19;130617;-43
2023/05/03 02:13:36;;;;;;;0.88;0.40;;;;;;;19.14;32.04;102721.38;16116184;19;131189;-43
2023/05/03 02:18:58;;;;;;;0.40;0.40;;;;;;;19.13;32.21;102721.59;16119603;19;132464;-40
2023/05/03 02:24:22;;;;;;;0.40;0.30;;;;;;;19.12;32.10;102703.22;16120958;19;129966;-40
2023/05/03 02:29:44;;;;;;;1.90;0.43;;;;;;;19.11;32.12;102684.88;16124078;19;130356;-39
2023/05/03 02:35:06;;;;;;;0.45;0.30;;;;;;;19.08;32.33;102687.00;16117767;19;130468;-40
2023/05/03 02:40:28;;;;;;;1.77;0.50;;;;;;;19.06;32.19;102680.81;16113222;19;130117;-43
2023/05/03 02:45:50;;;;;;;0.77;0.43;;;;;;;19.06;31.67;102693.81;16119835;19;130998;-42
2023/05/03 02:51:12;;;;;;;0.55;0.50;;;;;;;19.04;31.93;102704.25;16121490;19;129843;-42
2023/05/03 02:56:34;;;;;;;1.17;0.70;;;;;;;19.02;32.08;102706.38;16119191;19;130955;-40
2023/05/03 03:01:56;;;;;;;7.88;0.50;;;;;;;19.00;31.91;102711.31;16118109;19;131701;-47
2023/05/03 03:07:18;;;;;;;0.85;0.38;;;;;;;18.99;31.81;102709.59;16117629;19;131306;-42
2023/05/03 03:12:40;;;;;;;0.60;0.40;;;;;;;18.97;31.65;102707.00;16116902;19;130526;-40
2023/05/03 03:18:02;;;;;;;0.90;0.50;;;;;;;18.95;31.55;102699.94;16119161;19;130293;-40
2023/05/03 03:23:24;;;;;;;0.70;0.50;;;;;;;18.92;31.79;102679.03;16117542;19;129599;-43
2023/05/03 03:28:46;;;;;;;1.33;0.50;;;;;;;18.91;31.63;102682.88;16115667;19;129727;-41
2023/05/03 03:34:08;;;;;;;1.02;0.60;;;;;;;18.90;31.44;102690.31;16116365;19;129580;-41
2023/05/03 03:39:30;;;;;;;0.75;0.45;;;;;;;18.87;31.50;102692.66;16113492;19;129735;-40
2023/05/03 03:44:52;;;;;;;1.52;0.60;;;;;;;18.86;31.96;102689.03;16116341;19;131137;-41
2023/05/03 03:50:15;;;;;;;1.95;0.65;;;;;;;18.85;31.89;102705.88;16115189;19;130844;-41
2023/05/03 03:55:37;;;;;;;1.33;0.40;;;;;;;18.83;31.70;102714.41;16117786;19;131746;-40
2023/05/03 04:00:59;;;;;;;1.10;0.40;;;;;;;18.83;31.73;102717.16;16114106;19;130831;-39
2023/05/03 04:06:21;;;;;;;1.25;0.68;;;;;;;18.82;31.82;102725.72;16112063;19;129933;-41
2023/05/03 04:11:44;;;;;;;1.10;0.40;;;;;;;18.80;31.68;102723.13;16114830;19;129013;-41
2023/05/03 04:17:06;;;;;;;3.45;0.70;;;;;;;18.80;31.81;102730.59;16111687;19;129468;-39
2023/05/03 04:22:29;;;;;;;1.65;0.40;;;;;;;18.79;31.70;102726.09;16115010;19;130231;-39
2023/05/03 04:27:52;;;;;;;2.10;0.80;;;;;;;18.76;31.84;102733.75;16113301;19;130970;-39
2023/05/03 04:33:14;;;;;;;1.20;0.30;;;;;;;18.76;31.69;102746.78;16110357;19;129610;-39
2023/05/03 04:38:37;;;;;;;1.08;0.30;;;;;;;18.73;32.07;102750.81;16080319;19;130703;-41
2023/05/03 04:43:59;;;;;;;1.10;0.45;;;;;;;18.73;32.16;102756.34;16099867;19;130141;-39
2023/05/03 04:49:21;;;;;;;1.20;0.35;;;;;;;18.72;32.11;102760.16;16095169;19;130547;-40
2023/05/03 04:54:44;;;;;;;1.83;0.63;;;;;;;18.71;31.95;102764.00;16113470;19;130214;-40
2023/05/03 05:00:10;;;;;;;1.45;0.55;;;;;;;18.71;32.11;102763.16;16110913;19;129603;-40
2023/05/03 05:05:32;;;;;;;1.08;0.40;;;;;;;18.70;31.72;102767.88;16112029;19;129665;-39
2023/05/03 05:10:54;;;;;;;0.95;0.43;;;;;;;18.83;31.61;102761.53;16116071;19;133029;-40
2023/05/03 05:16:16;;;;;;;0.68;0.30;;;;;;;19.05;31.33;102767.88;16110425;19;129947;-42
2023/05/03 05:21:39;;;;;;;0.82;0.40;;;;;;;19.26;31.03;102760.53;16111307;19;130699;-42
2023/05/03 05:27:01;;;;;;;8.93;0.95;;;;;;;19.44;31.17;102754.44;16108615;19;131229;-40
2023/05/03 05:32:23;;;;;;;2.17;0.52;;;;;;;19.59;30.72;102754.25;16108883;19;130625;-39
2023/05/03 05:37:45;;;;;;;5.95;0.80;;;;;;;19.66;30.91;102752.38;16110983;19;130632;-39
2023/05/03 05:43:07;;;;;;;4.53;0.70;;;;;;;19.71;30.58;102762.84;16103637;19;131088;-39
2023/05/03 05:48:29;;;;;;;7.57;0.77;;;;;;;19.75;30.18;102760.50;16100416;19;132397;-39
2023/05/03 05:53:51;;;;;;;3.50;0.80;;;;;;;19.75;30.15;102763.28;16111244;19;130947;-39
2023/05/03 05:59:13;;;;;;;12.25;1.20;;;;;;;19.75;30.24;102764.16;16113611;19;130758;-39
2023/05/03 06:04:38;;;;;;;7.27;0.90;;;;;;;19.76;29.91;102768.63;16129393;19;129340;-38
2023/05/03 06:10:00;;;;;;;10.35;0.90;;;;;;;19.77;30.31;102766.72;16124089;19;129309;-40
2023/05/03 06:15:22;;;;;;;6.55;0.98;;;;;;;19.77;30.08;102775.03;16126832;19;130520;-44
2023/05/03 06:20:48;;;;;;;5.97;0.80;;;;;;;19.77;30.16;102772.25;16125384;19;129241;-39
2023/05/03 06:26:10;;;;;;;10.05;1.17;;;;;;;19.77;30.02;102766.72;16123475;19;130052;-40
2023/05/03 06:31:32;;;;;;;2.92;0.60;;;;;;;19.78;30.43;102760.94;16121829;19;129804;-40
2023/05/03 06:36:54;;;;;;;4.70;0.75;;;;;;;19.80;30.16;102756.03;16126070;19;134976;-39
2023/05/03 06:42:16;;;;;;;6.30;0.93;;;;;;;19.83;30.28;102755.63;16122019;19;130405;-39
2023/05/03 06:47:41;;;;;;;4.65;0.80;;;;;;;19.87;30.45;102749.66;16123899;19;129756;-39
2023/05/03 06:53:03;;;;;;;9.65;1.15;;;;;;;19.90;30.16;102743.66;16120960;19;129332;-39
2023/05/03 06:58:25;;;;;;;4.28;0.77;;;;;;;19.94;30.08;102733.84;16120843;19;130094;-44
2023/05/03 07:03:47;;;;;;;6.20;0.88;;;;;;;19.98;30.10;102738.75;16123273;19;130324;-39
2023/05/03 07:09:09;;;;;;;7.25;0.85;;;;;;;20.03;29.90;102738.16;16123067;19;129438;-39
2023/05/03 07:14:31;;;;;;;3.83;0.65;;;;;;;20.06;30.37;102732.19;16123225;19;130195;-41
2023/05/03 07:19:53;;;;;;;3.05;0.82;;;;;;;20.11;30.02;102737.09;16122329;19;129695;-39
2023/05/03 07:25:16;;;;;;;3.05;1.02;;;;;;;20.13;30.25;102730.25;16117778;19;130351;-39
2023/05/03 07:30:38;;;;;;;3.05;0.98;;;;;;;20.17;30.28;102732.63;16117577;19;129328;-39
2023/05/03 07:36:00;;;;;;;5.55;0.85;;;;;;;20.19;30.26;102722.16;16119793;19;130558;-40
2023/05/03 07:41:23;;;;;;;5.35;0.73;;;;;;;20.21;30.14;102722.78;16114429;19;129623;-39
2023/05/03 07:46:45;;;;;;;3.17;0.88;;;;;;;20.22;30.19;102725.34;16116770;19;130234;-39
2023/05/03 07:52:06;;;;;;;3.03;1.10;;;;;;;20.24;29.77;102714.88;16119868;19;129896;-41
2023/05/03 07:57:28;;;;;;;4.55;1.00;;;;;;;20.26;29.74;102709.09;16104388;19;129657;-40
2023/05/03 08:02:50;;;;;;;2.88;0.98;;;;;;;20.28;30.21;102707.84;16104508;19;130352;-40
2023/05/03 08:08:13;;;;;;;3.30;0.95;;;;;;;20.30;29.90;102702.03;16102364;19;129671;-45
2023/05/03 08:13:36;;;;;;;3.47;0.88;;;;;;;20.32;30.23;102707.38;16112242;19;130215;-41
2023/05/03 08:18:57;;;;;;;1.80;0.90;;;;;;;20.33;29.88;102695.19;16117469;19;129808;-40
2023/05/03 08:24:19;;;;;;;1.75;0.93;;;;;;;20.33;29.96;102692.41;16116574;19;130281;-39
2023/05/03 08:29:41;;;;;;;5.07;1.00;;;;;;;20.34;29.93;102683.00;16113953;19;129711;-40
2023/05/03 08:35:05;;;;;;;2.40;0.88;;;;;;;20.34;29.64;102680.22;16115767;19;129397;-43
2023/05/03 08:40:28;;;;;;;5.45;1.13;;;;;;;20.34;29.76;102705.25;16114650;19;130615;-44
2023/05/03 08:45:50;;;;;;;4.43;0.98;;;;;;;20.34;29.87;102694.13;16115383;19;129194;-43
2023/05/03 08:51:12;;;;;;;2.22;1.00;;;;;;;20.34;30.01;102689.44;16116397;19;129886;-39
2023/05/03 08:56:42;;;;;;;2.85;1.00;;;;;;;20.35;29.53;102684.72;16112686;19;131369;-41
2023/05/03 09:02:06;;;;;;;2.75;1.20;;;;;;;20.34;29.78;102688.56;16112930;19;130756;-44
2023/05/03 09:07:28;;;;;;;2.63;1.00;;;;;;;20.33;29.72;102681.28;16105191;19;130835;-40
2023/05/03 09:12:57;;;;;;;2.83;0.95;;;;;;;20.33;29.55;102684.94;16112030;19;129757;-44
2023/05/03 09:18:20;;;;;;;2.33;0.90;;;;;;;20.32;29.45;102682.38;16109435;19;130591;-44
2023/05/03 09:23:42;;;;;;;2.05;0.90;;;;;;;20.31;29.69;102689.03;16130912;19;129594;-39
2023/05/03 09:29:04;;;;;;;1.50;0.90;;;;;;;20.28;29.40;102674.47;16142250;19;129146;-46
2023/05/03 09:34:26;;;;;;;3.47;1.10;;;;;;;20.27;29.80;102689.44;16144963;19;130085;-45
2023/05/03 09:40:03;;;;;;;3.83;1.13;;;;;;;20.26;29.86;102681.31;16143362;19;129326;-39
2023/05/03 09:45:26;;;;;;;4.72;1.08;;;;;;;20.25;29.67;102683.25;16144533;19;129666;-39
2023/05/03 09:50:48;;;;;;;3.30;0.95;;;;;;;20.23;29.72;102677.03;16141650;19;130906;-40
2023/05/03 09:56:13;;;;;;;2.45;1.10;;;;;;;20.20;29.50;102671.91;16140939;19;130858;-39
2023/05/03 10:01:35;;;;;;;;;;;;;;;20.17;29.53;102668.69;16144119;19;129496;-42
2023/05/03 10:07:00;;;;;;;2.03;0.90;;;;;;;20.18;29.82;102668.50;16138772;19;129347;-39
2023/05/03 10:12:23;;;;;;;3.75;1.10;;;;;;;20.14;30.06;102656.94;16137703;19;129512;-40
2023/05/03 10:17:50;;;;;;;4.43;1.33;;;;;;;20.14;29.63;102656.94;16142641;19;130950;-39
2023/05/03 10:23:13;;;;;;;5.05;1.00;;;;;;;20.13;29.76;102646.06;16140082;19;129756;-40
2023/05/03 10:28:38;;;;;;;1.65;0.90;;;;;;;20.12;30.16;102636.00;16138413;19;129102;-40
2023/05/03 10:34:00;;;;;;;2.85;1.08;;;;;;;20.10;30.32;102643.69;16132475;19;130942;-41
2023/05/03 10:39:22;;;;;;;4.03;1.40;;;;;;;20.06;29.65;102651.63;16123271;19;129566;-39
2023/05/03 10:44:52;;;;;;;8.90;1.60;;;;;;;20.06;29.77;102648.00;16123117;19;130430;-40
2023/05/03 10:50:13;;;;;;;4.90;1.58;;;;;;;20.02;29.85;102649.47;16122269;19;129397;-40
2023/05/03 10:55:35;;;;;;;4.65;1.42;;;;;;;20.02;29.83;102635.59;16123638;19;129713;-40
2023/05/03 11:00:59;;;;;;;3.92;1.63;;;;;;;20.00;29.66;102633.00;16121868;19;131747;-41
2023/05/03 11:06:37;;;;;;;6.00;1.90;;;;;;;19.99;29.34;102639.63;16119329;19;130319;-40
2023/05/03 11:12:06;;;;;;;4.53;1.60;;;;;;;19.97;29.41;102633.44;16120868;19;129606;-39
2023/05/03 11:17:28;;;;;;;5.60;1.60;;;;;;;19.95;29.66;102625.28;16122917;19;131187;-39
2023/05/03 11:22:51;;;;;;;6.10;1.70;;;;;;;19.96;29.23;102621.44;16119947;19;130625;-40
2023/05/03 11:28:12;;;;;;;5.03;1.88;;;;;;;19.96;29.14;102615.88;16118167;19;131268;-40
2023/05/03 11:33:37;;;;;;;7.30;1.40;;;;;;;19.96;29.83;102607.56;16121425;19;134601;-40
2023/05/03 11:38:59;;;;;;;4.55;1.95;;;;;;;19.94;29.54;102606.91;16119193;19;129232;-40
2023/05/03 11:44:21;;;;;;;5.65;1.70;;;;;;;19.90;29.63;102594.53;16119970;19;130826;-40
2023/05/03 11:49:56;;;;;;;6.85;1.92;;;;;;;19.90;29.41;102588.09;16117066;19;129507;-40
2023/05/03 11:55:18;;;;;;;4.13;1.75;;;;;;;19.84;29.29;102578.72;16121845;19;129879;-40
2023/05/03 12:00:51;;;;;;;4.03;1.60;;;;;;;19.87;29.55;102567.19;16122143;19;129350;-39
2023/05/03 12:06:13;;;;;;;3.25;1.52;;;;;;;19.83;29.08;102566.75;16119584;19;129957;-40
2023/05/03 12:11:42;;;;;;;4.32;1.60;;;;;;;19.84;29.54;102553.72;16116350;19;129284;-41
2023/05/03 12:17:06;;;;;;;5.60;1.52;;;;;;;19.81;29.46;102548.63;16114330;19;130507;-40
2023/05/03 12:22:28;;;;;;;5.78;1.60;;;;;;;19.81;28.91;102540.28;16118399;19;129725;-39
2023/05/03 12:27:52;;;;;;;3.55;1.27;;;;;;;19.83;29.18;102527.00;16116399;19;129651;-40
2023/05/03 12:33:34;;;;;;;4.90;1.70;;;;;;;19.82;29.13;102525.31;16119201;19;130397;-40
2023/05/03 12:39:00;;;;;;;8.68;1.80;;;;;;;19.81;28.99;102515.28;16117275;19;129467;-40
2023/05/03 12:44:22;;;;;;;3.13;1.40;;;;;;;19.82;28.84;102514.19;16116331;19;130226;-39
2023/05/03 12:49:44;;;;;;;3.97;1.75;;;;;;;19.82;28.55;102505.88;16092731;19;130324;-39
2023/05/03 12:55:08;;;;;;;3.15;1.60;;;;;;;19.80;29.00;102499.69;16092593;19;131842;-41
2023/05/03 13:00:32;;;;;;;6.87;1.50;;;;;;;19.79;28.89;102490.50;16101566;19;129662;-39
2023/05/03 13:05:57;;;;;;;3.63;1.40;;;;;;;19.79;28.61;102481.31;16108500;19;130289;-39
2023/05/03 13:11:19;;;;;;;2.80;1.02;;;;;;;19.80;28.96;102471.94;16114866;19;130640;-41
2023/05/03 13:16:44;;;;;;;3.35;1.67;;;;;;;19.79;28.95;102464.66;16112394;19;129518;-40
2023/05/03 13:22:06;;;;;;;4.43;1.30;;;;;;;19.77;28.59;102450.13;16115294;19;129328;-41
2023/05/03 13:27:28;;;;;;;3.33;1.20;;;;;;;19.79;29.17;102437.72;16111325;19;130105;-39
2023/05/03 13:32:50;;;;;;;5.45;1.52;;;;;;;19.76;28.70;102440.94;16109532;19;131797;-39
2023/05/03 13:38:13;;;;;;;4.45;1.40;;;;;;;19.75;28.90;102430.06;16110443;19;130078;-43
2023/05/03 13:43:35;;;;;;;3.83;1.48;;;;;;;19.72;28.63;102414.69;16107833;19;131258;-40
2023/05/03 13:48:57;;;;;;;6.10;1.50;;;;;;;19.68;28.87;102417.06;16102146;19;130843;-40
2023/05/03 13:54:20;;;;;;;6.57;1.92;;;;;;;19.69;29.11;102410.41;16110278;19;129662;-41
2023/05/03 13:59:42;;;;;;;7.47;2.58;;;;;;;19.68;29.08;102397.63;16100791;19;130970;-39
2023/05/03 14:05:04;;;;;;;6.65;1.80;;;;;;;19.72;28.96;102397.16;16096466;19;129724;-40
2023/05/03 14:10:26;;;;;;;5.35;2.03;;;;;;;19.73;28.58;102387.75;16114697;19;131070;-39
2023/05/03 14:15:48;;;;;;;9.55;1.58;;;;;;;19.76;28.93;102387.34;16121069;19;129351;-41
2023/05/03 14:21:10;;;;;;;7.18;2.03;;;;;;;19.76;28.90;102377.06;16120509;19;129832;-39
2023/05/03 14:26:33;;;;;;;9.10;2.65;;;;;;;19.79;28.57;102373.03;16125193;19;129489;-39
2023/05/03 14:31:58;;;;;;;5.07;1.70;;;;;;;19.82;28.76;102355.91;16124711;19;130687;-40
2023/05/03 14:37:20;;;;;;;7.93;1.92;;;;;;;19.81;28.36;102368.09;16124743;19;130702;-40
2023/05/03 14:42:42;;;;;;;8.93;2.42;;;;;;;19.81;28.71;102357.84;16120844;19;129524;-39
2023/05/03 14:48:04;;;;;;;5.97;1.95;;;;;;;19.83;28.40;102352.06;16105702;19;130869;-40
2023/05/03 14:53:26;;;;;;;8.75;2.15;;;;;;;19.85;28.20;102341.59;16113071;19;129445;-40
2023/05/03 14:58:49;;;;;;;6.72;2.17;;;;;;;19.87;28.24;102339.44;16122770;19;131184;-39
2023/05/03 15:04:11;;;;;;;6.28;1.85;;;;;;;19.89;28.43;102331.75;16118638;19;131093;-40
2023/05/03 15:09:33;;;;;;;12.80;2.40;;;;;;;19.88;28.22;102330.03;16113342;19;134066;-42
2023/05/03 15:14:55;;;;;;;8.35;2.20;;;;;;;19.87;28.13;102324.72;16119579;19;129953;-40
2023/05/03 15:20:16;;;;;;;7.93;2.10;;;;;;;19.82;28.56;102317.03;16114202;19;130134;-39
2023/05/03 15:25:38;;;;;;;5.15;1.60;;;;;;;19.79;28.54;102307.22;16120210;19;131300;-39
2023/05/03 15:31:00;;;;;;;3.83;1.25;;;;;;;19.76;28.73;102313.19;16118023;19;129588;-40
2023/05/03 15:36:22;;;;;;;3.60;1.50;;;;;;;19.74;28.53;102301.50;16120057;19;129529;-41
2023/05/03 15:41:44;;;;;;;5.28;1.48;;;;;;;19.72;28.31;102297.22;16120162;19;131522;-39
2023/05/03 15:47:06;;;;;;;4.95;1.50;;;;;;;19.69;28.65;102290.19;16121952;19;129336;-39
2023/05/03 15:52:28;;;;;;;7.45;1.60;;;;;;;19.67;28.44;102289.53;16118763;19;130302;-41
2023/05/03 15:57:52;;;;;;;5.40;1.40;;;;;;;19.65;28.95;102292.56;16117407;19;130066;-40
2023/05/03 16:03:13;;;;;;;3.97;1.27;;;;;;;19.63;28.85;102282.75;16119610;19;130225;-40
2023/05/03 16:08:36;;;;;;;8.85;1.80;;;;;;;19.61;28.62;102268.22;16106515;19;132134;-42
2023/05/03 16:13:58;;;;;;;10.57;4.63;;;;;;;19.60;28.75;102272.91;16099095;19;131425;-39
2023/05/03 16:19:20;;;;;;;11.57;4.05;;;;;;;19.56;28.76;102271.66;16108173;19;129747;-39
2023/05/03 16:24:43;;;;;;;10.73;3.85;;;;;;;19.56;29.02;102277.22;16108900;19;129523;-40
2023/05/03 16:30:06;;;;;;;8.57;3.88;;;;;;;19.56;28.69;102282.78;16108471;19;130286;-39
2023/05/03 16:35:28;;;;;;;13.57;4.15;;;;;;;19.58;28.85;102280.59;16103555;19;131564;-40
2023/05/03 16:40:50;;;;;;;10.30;3.75;;;;;;;19.57;28.91;102273.34;16110108;19;131036;-41
2023/05/03 16:46:12;;;;;;;7.80;3.30;;;;;;;19.58;28.76;102260.34;16105471;19;130188;-38
2023/05/03 16:51:34;;;;;;;6.20;3.00;;;;;;;19.57;28.98;102265.00;16109987;19;131280;-49
2023/05/03 16:56:56;;;;;;;6.90;3.58;;;;;;;19.55;28.93;102258.00;16098462;19;131688;-44
2023/05/03 17:02:18;;;;;;;9.95;4.15;;;;;;;19.57;29.34;102259.47;16082724;19;130896;-44
2023/05/03 17:07:41;;;;;;;10.90;4.70;;;;;;;19.58;29.29;102250.06;16091098;19;131133;-39
2023/05/03 17:13:05;;;;;;;10.85;4.30;;;;;;;19.59;29.16;102251.78;16093703;19;131298;-44
2023/05/03 17:18:27;;;;;;;12.93;4.35;;;;;;;19.61;29.52;102257.97;16103291;19;130211;-42
2023/05/03 17:23:49;;;;;;;11.40;3.83;;;;;;;19.63;29.20;102253.03;16105152;19;129548;-46
2023/05/03 17:29:12;;;;;;;11.95;4.13;;;;;;;19.61;29.14;102255.19;16103231;19;130724;-44
2023/05/03 17:34:34;;;;;;;9.57;3.75;;;;;;;19.61;29.20;102259.91;16106499;19;129711;-43
2023/05/03 17:39:56;;;;;;;11.63;3.72;;;;;;;19.61;29.03;102255.19;16108193;19;129872;-47
2023/05/03 17:45:18;;;;;;;7.90;3.15;;;;;;;19.61;28.91;102251.56;16121507;19;129647;-45
2023/05/03 17:50:42;;;;;;;7.60;2.80;;;;;;;19.59;29.11;102249.00;16125331;19;130868;-42
2023/05/03 17:56:04;;;;;;;6.43;2.67;;;;;;;19.57;29.28;102256.69;16125099;19;129329;-46
2023/05/03 18:01:26;;;;;;;6.55;2.70;;;;;;;19.56;29.28;102245.81;16123073;19;131439;-41
2023/05/03 18:06:48;;;;;;;7.55;2.47;;;;;;;19.56;29.01;102254.16;16123496;19;130815;-39
2023/05/03 18:12:10;;;;;;;2.88;1.90;;;;;;;19.52;29.48;102237.91;16125102;19;129464;-48
2023/05/03 18:17:31;;;;;;;4.30;2.45;;;;;;;19.52;28.96;102242.63;16121698;19;130750;-42
2023/05/03 18:22:53;;;;;;;6.47;2.17;;;;;;;19.50;29.13;102240.09;16121731;19;129278;-40
2023/05/03 18:28:16;;;;;;;8.75;2.28;;;;;;;19.51;29.71;102243.72;16121837;19;131759;-42
2023/05/03 18:33:38;;;;;;;8.10;2.10;;;;;;;19.53;29.56;102241.56;16124243;19;129619;-47
2023/05/03 18:39:00;;;;;;;13.32;2.00;;;;;;;19.55;29.92;102250.53;16118618;19;130969;-50
2023/05/03 18:44:24;;;;;;;12.15;2.25;;;;;;;19.56;30.04;102235.59;16118483;19;130329;-45
2023/05/03 18:49:51;;;;;;;13.45;1.88;;;;;;;19.57;29.67;102233.66;16122015;19;129330;-42
2023/05/03 18:55:13;;;;;;;7.78;2.00;;;;;;;19.58;29.70;102243.69;16121762;19;129821;-45
2023/05/03 19:00:35;;;;;;;6.70;2.03;;;;;;;19.57;29.88;102245.59;16120563;19;130029;-46
2023/05/03 19:06:02;;;;;;;4.45;1.55;;;;;;;19.57;29.85;102240.03;16119384;19;130297;-41
2023/05/03 19:11:24;;;;;;;8.48;1.92;;;;;;;19.56;29.90;102240.25;16098832;19;131531;-40
2023/05/03 19:16:47;;;;;;;11.30;2.25;;;;;;;19.56;30.20;102238.34;16116006;19;129416;-40
2023/05/03 19:22:09;;;;;;;8.75;2.10;;;;;;;19.55;29.89;102247.75;16110455;19;131655;-39
2023/05/03 19:27:31;;;;;;;5.65;1.45;;;;;;;19.55;30.00;102242.19;16116634;19;131560;-38
2023/05/03 19:32:53;;;;;;;5.07;1.60;;;;;;;19.55;30.19;102247.75;16117657;19;129669;-40
2023/05/03 19:38:15;;;;;;;4.05;1.65;;;;;;;19.53;30.06;102245.19;16115689;19;129166;-40
2023/05/03 19:43:38;;;;;;;5.03;1.38;;;;;;;19.55;30.03;102253.31;16115057;19;129848;-40
2023/05/03 19:49:00;;;;;;;5.20;1.30;;;;;;;19.56;30.34;102245.81;16115043;19;130263;-39
2023/05/03 19:54:22;;;;;;;7.82;1.40;;;;;;;19.57;30.00;102253.91;16110472;19;129585;-38
2023/05/03 19:59:46;;;;;;;6.65;1.80;;;;;;;19.59;30.53;102254.56;16110124;19;130461;-41
2023/05/03 20:05:08;;;;;;;7.07;1.85;;;;;;;19.60;30.26;102256.25;16111750;19;130554;-40
2023/05/03 20:10:35;;;;;;;7.35;1.80;;;;;;;19.56;30.20;102245.81;16106172;19;130542;-39
2023/05/03 20:15:56;;;;;;;10.45;1.58;;;;;;;19.52;30.00;102242.63;16104954;19;130588;-40
2023/05/03 20:21:18;;;;;;;5.13;1.27;;;;;;;19.50;29.94;102244.78;16111824;19;129838;-39
2023/05/03 20:26:40;;;;;;;6.78;1.25;;;;;;;19.46;30.02;102243.50;16108620;19;131823;-39
2023/05/03 20:32:02;;;;;;;6.03;1.60;;;;;;;19.43;30.31;102238.41;16107946;19;130145;-41
2023/05/03 20:37:24;;;;;;;3.72;1.30;;;;;;;19.41;30.18;102235.00;16110276;19;131248;-40
2023/05/03 20:42:46;;;;;;;8.00;1.33;;;;;;;19.37;30.30;102229.88;16110407;19;131587;-40
2023/05/03 20:48:08;;;;;;;5.63;1.95;;;;;;;19.35;30.52;102225.63;16112393;19;131960;-39
2023/05/03 20:53:30;;;;;;;3.22;1.00;;;;;;;19.32;30.28;102215.81;16112573;19;129774;-41
2023/05/03 20:58:52;;;;;;;4.60;0.80;;;;;;;19.29;30.57;102205.16;16106733;19;129461;-41
2023/05/03 21:04:14;;;;;;;4.07;0.90;;;;;;;19.28;30.31;102208.13;16087093;19;130326;-42
2023/05/03 21:09:35;;;;;;;3.17;0.80;;;;;;;19.25;30.51;102206.66;16108030;19;130108;-39
2023/05/03 21:14:57;;;;;;;3.67;1.00;;;;;;;19.23;30.65;102206.03;16108222;19;130826;-40
2023/05/03 21:20:19;;;;;;;2.42;1.10;;;;;;;19.22;30.58;102207.09;16104979;19;129171;-41
2023/05/03 21:25:41;;;;;;;3.17;0.70;;;;;;;19.19;30.60;102199.19;16109273;19;130387;-39
2023/05/03 21:31:02;;;;;;;3.75;0.90;;;;;;;19.18;30.21;102203.03;16107595;19;130987;-40
2023/05/03 21:36:24;;;;;;;1.90;0.70;;;;;;;19.15;30.23;102197.94;16108337;19;130412;-39
2023/05/03 21:41:46;;;;;;;1.80;0.60;;;;;;;19.14;30.26;102185.13;16104295;19;129311;-40
2023/05/03 21:47:08;;;;;;;2.13;0.60;;;;;;;19.12;30.67;102187.25;16104942;19;131627;-40
2023/05/03 21:52:31;;;;;;;3.53;0.85;;;;;;;19.11;30.36;102180.00;16104555;19;130737;-39
2023/05/03 21:57:53;;;;;;;5.00;0.98;;;;;;;19.09;30.45;102183.00;16108080;19;130203;-40
2023/05/03 22:03:15;;;;;;;2.25;0.60;;;;;;;19.08;30.24;102178.53;16103978;19;130463;-40
2023/05/03 22:08:37;;;;;;;2.50;1.00;;;;;;;19.07;30.61;102179.59;16104727;19;129339;-40
2023/05/03 22:14:05;;;;;;;1.95;0.98;;;;;;;19.04;30.48;102180.03;16107360;19;130506;-39
2023/05/03 22:19:29;;;;;;;6.20;1.00;;;;;;;19.03;30.20;102187.50;16105529;19;130986;-40
2023/05/03 22:24:51;;;;;;;1.75;0.80;;;;;;;19.01;30.63;102175.78;16104641;19;130074;-40
2023/05/03 22:30:13;;;;;;;2.85;1.00;;;;;;;18.99;30.68;102166.81;16113906;19;131749;-42
2023/05/03 22:35:35;;;;;;;3.25;0.90;;;;;;;18.99;30.27;102175.16;16124457;19;129483;-39
2023/05/03 22:40:57;;;;;;;3.03;0.77;;;;;;;18.96;30.43;102158.94;16118052;19;130657;-42
2023/05/03 22:46:19;;;;;;;2.28;1.10;;;;;;;18.95;30.49;102148.94;16120179;19;129497;-39
2023/05/03 22:51:41;;;;;;;2.53;0.80;;;;;;;18.95;30.62;102153.63;16119927;19;130100;-40
2023/05/03 22:57:03;;;;;;;2.90;0.80;;;;;;;18.94;30.57;102143.59;16119746;19;130917;-40
2023/05/03 23:02:25;;;;;;;2.55;0.80;;;;;;;18.90;30.38;102141.25;16118376;19;129988;-39
2023/05/03 23:07:47;;;;;;;1.67;0.70;;;;;;;18.90;30.46;102134.88;16118929;19;130290;-40
2023/05/03 23:13:09;;;;;;;1.23;0.68;;;;;;;18.89;30.78;102127.63;16118527;19;130648;-40
2023/05/03 23:18:31;;;;;;;1.95;0.75;;;;;;;18.87;30.67;102115.88;16118624;19;130820;-39
2023/05/03 23:23:53;;;;;;;1.63;0.70;;;;;;;18.86;30.81;102115.06;16121281;19;129685;-40
2023/05/03 23:29:15;;;;;;;2.15;0.90;;;;;;;18.86;30.45;102116.94;16118511;19;131119;-40
2023/05/03 23:34:37;;;;;;;1.95;0.82;;;;;;;18.86;30.87;102119.72;16120793;19;130759;-41
2023/05/03 23:39:59;;;;;;;2.78;0.95;;;;;;;18.84;30.47;102108.00;16115329;19;129255;-40
2023/05/03 23:45:21;;;;;;;2.22;0.90;;;;;;;18.83;30.43;102100.78;16119670;19;129443;-41
2023/05/03 23:50:43;;;;;;;1.55;0.90;;;;;;;18.81;30.63;102094.59;16115424;19;129959;-40
2023/05/03 23:56:05;;;;;;;1.77;0.93;;;;;;;18.80;30.93;102093.72;16114515;19;132823;-40
